Time;durP1;ratioP1;P1;durP2;ratioP2;P2;SDS_P1;SDS_P2;PMS_P1;PMS_P2;Temp;Humidity;BMP_temperature;BMP_pressure;BME280_temperature;BME280_humidity;BME280_pressure;Samples;Min_cycle;Max_cycle;Signal;HPM_P1;HPM_P2
2023/02/15 00:00:20;;;;;;;70.82;31.83;;;2.10;99.90;;;;;;5032542;28;20026;-54
2023/02/15 00:02:46;;;;;;;59.00;28.67;;;2.10;99.90;;;;;;5032502;28;20432;-51
2023/02/15 00:05:11;;;;;;;59.75;28.33;;;2.10;99.90;;;;;;5032388;28;20483;-53
2023/02/15 00:07:37;;;;;;;59.10;28.58;;;2.00;99.90;;;;;;5032101;28;20029;-59
2023/02/15 00:10:03;;;;;;;65.47;30.15;;;2.10;99.90;;;;;;5032157;28;20021;-52
2023/02/15 00:12:29;;;;;;;65.15;27.90;;;2.10;99.90;;;;;;5032226;28;20092;-52
2023/02/15 00:14:54;;;;;;;58.67;27.50;;;2.10;99.90;;;;;;5031995;28;20053;-51
2023/02/15 00:17:21;;;;;;;61.33;28.23;;;2.00;99.90;;;;;;5032300;28;20029;-52
2023/02/15 00:19:46;;;;;;;64.65;28.45;;;2.00;99.90;;;;;;5032165;28;20091;-53
2023/02/15 00:22:12;;;;;;;60.55;28.65;;;2.10;99.90;;;;;;5032151;28;20034;-54
2023/02/15 00:24:37;;;;;;;55.75;27.52;;;2.10;99.90;;;;;;5031804;28;20037;-56
2023/02/15 00:27:03;;;;;;;64.90;28.73;;;2.10;99.90;;;;;;5014412;28;20084;-54
2023/02/15 00:29:28;;;;;;;55.40;28.08;;;2.00;99.90;;;;;;5031937;28;20028;-53
2023/02/15 00:31:54;;;;;;;62.95;29.58;;;2.00;99.90;;;;;;5014283;28;20499;-55
2023/02/15 00:34:22;;;;;;;63.47;27.35;;;2.10;99.90;;;;;;5031808;28;20094;-52
2023/02/15 00:36:48;;;;;;;63.53;29.40;;;2.10;99.90;;;;;;5014159;28;20029;-55
2023/02/15 00:39:15;;;;;;;69.57;29.65;;;2.00;99.90;;;;;;5014342;28;20183;-58
2023/02/15 00:41:41;;;;;;;69.13;30.73;;;2.10;99.90;;;;;;5031937;28;20034;-55
2023/02/15 00:44:07;;;;;;;60.63;28.05;;;2.00;99.90;;;;;;5031615;28;20489;-57
2023/02/15 00:46:33;;;;;;;63.97;30.42;;;1.90;99.90;;;;;;5031464;28;20029;-55
2023/02/15 00:48:59;;;;;;;55.97;26.60;;;2.00;99.90;;;;;;5031682;28;20032;-55
2023/02/15 00:51:24;;;;;;;66.28;30.02;;;2.00;99.90;;;;;;5031602;28;20514;-59
2023/02/15 00:53:50;;;;;;;56.45;27.65;;;2.10;99.90;;;;;;5031623;28;20083;-55
2023/02/15 00:56:16;;;;;;;56.13;27.58;;;2.10;99.90;;;;;;5031577;28;20022;-53
2023/02/15 00:58:42;;;;;;;55.00;26.95;;;2.00;99.90;;;;;;5031581;28;20033;-53
2023/02/15 01:01:13;;;;;;;64.47;31.67;;;2.00;99.90;;;;;;5031690;28;20017;-53
2023/02/15 01:03:41;;;;;;;59.22;28.90;;;2.00;99.90;;;;;;5031639;28;20026;-54
2023/02/15 01:06:06;;;;;;;54.42;26.95;;;2.10;99.90;;;;;;5031410;28;20389;-54
2023/02/15 01:08:32;;;;;;;64.03;29.58;;;2.10;99.90;;;;;;5031025;28;20041;-52
2023/02/15 01:11:04;;;;;;;61.92;29.15;;;2.00;99.90;;;;;;5031413;28;20456;-55
2023/02/15 01:13:29;;;;;;;65.70;27.90;;;2.00;99.90;;;;;;5031640;28;20025;-58
2023/02/15 01:15:55;;;;;;;66.13;28.27;;;1.90;99.90;;;;;;5031337;28;20074;-55
2023/02/15 01:18:22;;;;;;;62.05;29.63;;;1.80;99.90;;;;;;5031472;28;20028;-56
2023/02/15 01:20:47;;;;;;;62.50;27.55;;;1.80;99.90;;;;;;5013723;28;20167;-54
2023/02/15 01:23:13;;;;;;;64.32;28.45;;;1.80;99.90;;;;;;5032558;28;20489;-52
2023/02/15 01:25:39;;;;;;;55.80;27.45;;;1.70;99.90;;;;;;5035689;28;20030;-54
2023/02/15 01:28:04;;;;;;;65.28;27.50;;;1.70;99.90;;;;;;5035700;28;20595;-56
2023/02/15 01:30:31;;;;;;;56.90;28.02;;;1.70;99.90;;;;;;5035559;28;20504;-57
2023/02/15 01:32:57;;;;;;;57.15;26.10;;;1.70;99.90;;;;;;5017826;28;20451;-54
2023/02/15 01:35:22;;;;;;;51.22;26.73;;;1.70;99.90;;;;;;5035195;28;20453;-54
2023/02/15 01:37:48;;;;;;;56.70;27.27;;;1.70;99.90;;;;;;5035197;28;20031;-51
2023/02/15 01:40:16;;;;;;;53.28;25.90;;;1.60;99.90;;;;;;5017539;28;20072;-52
2023/02/15 01:42:42;;;;;;;57.10;26.83;;;1.70;99.90;;;;;;5017467;28;20029;-56
2023/02/15 01:45:24;;;;;;;73.82;28.50;;;1.80;99.90;;;;;;5034959;28;20033;-53
2023/02/15 01:47:51;;;;;;;57.20;27.15;;;1.80;99.90;;;;;;5035124;28;20057;-54
2023/02/15 01:50:36;;;;;;;59.05;29.38;;;1.80;99.90;;;;;;5034767;28;20034;-55
2023/02/15 01:53:15;;;;;;;63.15;27.00;;;1.70;99.90;;;;;;5035076;28;20506;-57
2023/02/15 01:55:47;;;;;;;60.05;28.88;;;1.70;99.90;;;;;;5035168;28;20513;-54
2023/02/15 01:58:13;;;;;;;56.55;28.50;;;1.70;99.90;;;;;;5017394;28;20072;-53
2023/02/15 02:00:39;;;;;;;55.90;28.13;;;1.80;99.90;;;;;;5034873;28;20028;-55
2023/02/15 02:03:05;;;;;;;56.00;27.88;;;1.80;99.90;;;;;;5035113;28;20492;-48
2023/02/15 02:05:31;;;;;;;54.15;27.67;;;1.90;99.90;;;;;;5017151;28;20268;-53
2023/02/15 02:08:00;;;;;;;57.10;29.00;;;1.90;99.90;;;;;;5034455;28;20030;-54
2023/02/15 02:10:27;;;;;;;59.90;28.27;;;1.90;99.90;;;;;;5034706;28;20064;-55
2023/02/15 02:12:57;;;;;;;55.50;29.02;;;1.90;99.90;;;;;;5034605;28;20032;-54
2023/02/15 02:15:46;;;;;;;55.17;28.00;;;2.00;99.90;;;;;;5034521;28;20068;-54
2023/02/15 02:18:23;;;;;;;68.82;27.45;;;2.00;99.90;;;;;;5034693;28;20087;-54
2023/02/15 02:21:21;;;;;;;56.50;27.65;;;2.00;99.90;;;;;;5016685;28;20029;-55
2023/02/15 02:23:57;;;;;;;57.63;26.65;;;1.90;99.90;;;;;;5034537;28;20489;-50
2023/02/15 02:26:55;;;;;;;62.28;27.48;;;1.90;99.90;;;;;;5016590;28;20035;-57
2023/02/15 02:29:39;;;;;;;62.08;28.20;;;1.90;99.90;;;;;;5034360;28;20071;-53
2023/02/15 02:32:08;;;;;;;55.25;27.58;;;1.90;99.90;;;;;;5035316;28;20382;-53
2023/02/15 02:34:50;;;;;;;51.75;26.65;;;1.90;99.90;;;;;;5034792;28;20100;-52
2023/02/15 02:37:36;;;;;;;50.17;26.27;;;2.00;99.90;;;;;;5034739;28;20025;-54
2023/02/15 02:40:16;;;;;;;;;;;1.90;99.90;;;;;;5034739;28;20430;-54
2023/02/15 02:42:48;;;;;;;62.83;27.52;;;2.00;99.90;;;;;;5034204;28;20376;-52
2023/02/15 02:45:44;;;;;;;64.40;29.17;;;2.00;99.90;;;;;;5033868;28;20037;-54
2023/02/15 02:48:18;;;;;;;60.25;28.33;;;2.10;99.90;;;;;;5031804;28;20524;-55
2023/02/15 02:50:44;;;;;;;54.83;28.17;;;2.00;99.90;;;;;;5033882;28;20091;-55
2023/02/15 02:53:11;;;;;;;60.67;28.50;;;2.00;99.90;;;;;;5016111;28;20025;-52
2023/02/15 02:55:59;;;;;;;59.50;27.13;;;2.00;99.90;;;;;;5033713;28;20017;-50
2023/02/15 02:58:59;;;;;;;54.30;28.00;;;2.00;99.90;;;;;;5033792;28;20022;-52
2023/02/15 03:01:55;;;;;;;49.25;26.10;;;2.00;99.90;;;;;;5033139;28;20065;-51
2023/02/15 03:04:32;;;;;;;52.03;28.38;;;2.10;99.90;;;;;;5002993;28;20120;-55
2023/02/15 03:07:01;;;;;;;51.22;26.45;;;2.10;99.90;;;;;;5033229;28;20040;-52
2023/02/15 03:09:42;;;;;;;53.42;27.13;;;2.20;99.90;;;;;;5033692;28;20021;-55
2023/02/15 03:12:19;;;;;;;54.50;27.38;;;2.20;99.90;;;;;;5033576;28;20021;-53
2023/02/15 03:14:50;;;;;;;53.22;28.23;;;2.30;99.90;;;;;;5033268;28;20029;-51
2023/02/15 03:17:18;;;;;;;58.80;27.70;;;2.30;99.90;;;;;;5033600;28;20029;-53
2023/02/15 03:19:46;;;;;;;47.13;25.02;;;2.40;99.90;;;;;;5033325;28;20436;-58
2023/02/15 03:22:19;;;;;;;49.10;26.75;;;2.30;99.90;;;;;;5033485;28;20386;-55
2023/02/15 03:24:54;;;;;;;53.72;25.63;;;2.40;99.90;;;;;;5033179;28;20556;-57
2023/02/15 03:27:24;;;;;;;53.80;26.05;;;2.40;99.90;;;;;;5015507;28;20032;-54
2023/02/15 03:29:53;;;;;;;54.60;28.30;;;2.40;99.90;;;;;;5033267;28;20144;-53
2023/02/15 03:32:19;;;;;;;55.10;26.58;;;2.40;99.90;;;;;;5033198;28;20022;-53
2023/02/15 03:34:45;;;;;;;50.58;27.05;;;2.50;99.90;;;;;;5015066;28;20079;-51
2023/02/15 03:37:35;;;;;;;58.72;29.75;;;2.50;99.90;;;;;;5015258;28;20044;-53
2023/02/15 03:43:05;;;;;;;49.55;25.75;;;2.40;99.90;;;;;;5033055;28;20033;-55
2023/02/15 03:45:32;;;;;;;51.08;26.92;;;2.40;99.90;;;;;;5031862;28;20307;-55
2023/02/15 03:48:00;;;;;;;45.05;24.95;;;2.40;99.90;;;;;;5032707;28;20397;-54
2023/02/15 03:53:23;;;;;;;46.80;26.85;;;2.40;99.90;;;;;;5032820;28;20507;-51
2023/02/15 03:55:54;;;;;;;49.88;26.67;;;2.40;99.90;;;;;;5032718;28;20393;-52
2023/02/15 04:04:21;;;;;;;51.95;26.58;;;2.30;99.90;;;;;;5005423;28;20083;-54
2023/02/15 04:06:46;;;;;;;51.42;25.98;;;2.30;99.90;;;;;;5032135;28;20033;-54
2023/02/15 04:11:56;;;;;;;53.35;28.23;;;2.20;99.90;;;;;;5032402;28;20082;-56
2023/02/15 04:17:07;;;;;;;55.80;27.27;;;2.10;99.90;;;;;;5032309;28;20068;-55
2023/02/15 04:25:11;;;;;;;61.97;26.02;;;2.10;99.90;;;;;;5032050;28;20037;-60
2023/02/15 04:27:37;;;;;;;53.67;25.48;;;2.10;99.90;;;;;;5032119;28;20032;-59
2023/02/15 04:30:03;;;;;;;44.75;24.80;;;2.10;99.90;;;;;;5032116;28;20489;-58
2023/02/15 04:32:29;;;;;;;56.63;24.67;;;2.00;99.90;;;;;;5031876;28;20091;-55
2023/02/15 04:34:54;;;;;;;56.65;25.73;;;2.00;99.90;;;;;;5031734;28;20021;-55
2023/02/15 04:37:20;;;;;;;45.80;22.58;;;2.00;99.90;;;;;;5031883;28;20416;-56
2023/02/15 04:39:45;;;;;;;56.13;26.33;;;2.00;99.90;;;;;;5031703;28;20064;-54
2023/02/15 04:42:11;;;;;;;54.65;23.90;;;1.90;99.90;;;;;;5031833;28;20013;-55
2023/02/15 04:44:36;;;;;;;57.67;25.33;;;2.00;99.90;;;;;;5031636;28;20052;-52
2023/02/15 04:47:02;;;;;;;46.38;22.92;;;2.00;99.90;;;;;;5031733;28;20400;-55
2023/02/15 04:49:27;;;;;;;57.35;23.20;;;2.10;99.90;;;;;;5031726;28;20070;-54
2023/02/15 04:51:53;;;;;;;64.72;26.17;;;2.10;99.90;;;;;;5031587;28;20041;-55
2023/02/15 04:54:18;;;;;;;60.55;24.38;;;2.00;99.90;;;;;;5031485;28;20493;-53
2023/02/15 04:56:44;;;;;;;59.42;23.20;;;1.90;99.90;;;;;;5031222;28;20084;-55
2023/02/15 04:59:10;;;;;;;63.45;25.02;;;1.90;99.90;;;;;;5031631;28;20018;-54
2023/02/15 05:01:36;;;;;;;79.35;25.77;;;1.90;99.90;;;;;;5031482;28;20073;-54
2023/02/15 05:04:02;;;;;;;71.88;25.38;;;1.90;99.90;;;;;;5013516;28;20027;-52
2023/02/15 05:06:28;;;;;;;63.78;24.38;;;1.90;99.90;;;;;;5031164;28;20026;-54
2023/02/15 05:08:53;;;;;;;55.55;24.50;;;1.80;99.90;;;;;;5031512;28;20449;-56
2023/02/15 05:11:19;;;;;;;69.85;24.08;;;1.70;99.90;;;;;;5031661;28;20513;-52
2023/02/15 05:13:44;;;;;;;76.43;22.27;;;1.70;99.90;;;;;;5031339;28;20029;-56
2023/02/15 05:16:10;;;;;;;65.22;23.40;;;1.70;99.90;;;;;;5031316;28;20029;-54
2023/02/15 05:18:35;;;;;;;55.67;23.58;;;1.70;99.90;;;;;;5031735;28;20029;-53
2023/02/15 05:21:01;;;;;;;70.13;22.80;;;1.60;99.90;;;;;;5031321;28;20079;-58
2023/02/15 05:23:26;;;;;;;42.15;22.42;;;1.60;99.90;;;;;;5031230;28;20029;-55
2023/02/15 05:28:37;;;;;;;74.90;22.92;;;1.60;99.90;;;;;;5031318;28;20032;-52
2023/02/15 05:31:17;;;;;;;85.53;24.20;;;1.70;99.90;;;;;;5031404;28;20022;-53
2023/02/15 05:33:43;;;;;;;66.40;22.52;;;1.70;99.90;;;;;;5031055;28;20488;-53
2023/02/15 05:36:09;;;;;;;95.60;23.05;;;1.60;99.90;;;;;;5031106;28;20105;-58
2023/02/15 05:38:37;;;;;;;66.50;23.70;;;1.60;99.90;;;;;;5031458;28;20485;-52
2023/02/15 05:41:06;;;;;;;61.60;22.30;;;1.50;99.90;;;;;;5031263;28;20079;-51
2023/02/15 05:43:32;;;;;;;47.85;23.60;;;1.50;99.90;;;;;;5031059;28;20369;-52
2023/02/15 05:45:57;;;;;;;41.67;23.40;;;1.50;99.90;;;;;;5030869;28;20399;-53
2023/02/15 05:48:25;;;;;;;40.88;23.33;;;1.50;99.90;;;;;;5031250;28;20104;-53
2023/02/15 05:51:20;;;;;;;63.05;23.33;;;1.60;99.90;;;;;;5052391;22;20099;-49
2023/02/15 05:53:45;;;;;;;66.82;21.88;;;1.60;99.90;;;;;;5009539;28;20063;-47
2023/02/15 05:56:12;;;;;;;52.05;22.95;;;1.70;99.90;;;;;;5012917;28;20091;-49
2023/02/15 05:58:40;;;;;;;51.58;22.67;;;1.70;99.90;;;;;;5030936;28;20032;-48
2023/02/15 06:01:17;;;;;;;59.08;22.55;;;1.70;99.90;;;;;;5031043;28;20017;-50
2023/02/15 06:03:43;;;;;;;38.22;21.35;;;1.70;99.90;;;;;;5031357;28;20053;-49
2023/02/15 06:06:09;;;;;;;45.13;22.13;;;1.80;99.90;;;;;;5030907;28;20398;-50
2023/02/15 06:08:36;;;;;;;43.15;21.15;;;1.90;99.90;;;;;;5030912;28;20533;-52
2023/02/15 06:11:01;;;;;;;43.20;19.67;;;2.00;99.90;;;;;;5034992;28;20100;-50
2023/02/15 06:13:27;;;;;;;37.42;20.00;;;2.00;99.90;;;;;;5034402;28;20033;-49
2023/02/15 06:15:53;;;;;;;40.83;21.45;;;2.00;99.90;;;;;;5034480;28;20520;-50
2023/02/15 06:18:18;;;;;;;35.72;19.70;;;2.00;99.90;;;;;;5034488;28;20493;-51
2023/02/15 06:20:48;;;;;;;39.78;21.52;;;1.90;99.90;;;;;;5034565;28;20037;-50
2023/02/15 06:23:13;;;;;;;44.88;21.80;;;1.90;99.90;;;;;;5033819;28;20022;-50
2023/02/15 06:25:39;;;;;;;39.67;22.02;;;2.00;99.90;;;;;;5034202;28;20033;-52
2023/02/15 06:28:04;;;;;;;39.22;20.48;;;1.90;99.90;;;;;;5016567;28;20022;-50
2023/02/15 06:30:30;;;;;;;40.53;20.67;;;1.90;99.90;;;;;;5034335;28;20028;-48
2023/02/15 06:32:56;;;;;;;41.20;20.90;;;1.90;99.90;;;;;;5034312;28;20028;-48
2023/02/15 06:35:21;;;;;;;43.03;21.80;;;1.90;99.90;;;;;;5033917;28;20018;-54
2023/02/15 06:37:48;;;;;;;43.38;20.92;;;1.90;99.90;;;;;;5034019;28;20033;-48
2023/02/15 06:40:14;;;;;;;41.72;21.42;;;2.00;99.90;;;;;;5034175;28;20036;-46
2023/02/15 06:42:39;;;;;;;40.72;20.92;;;2.00;99.90;;;;;;5034164;28;20036;-49
2023/02/15 06:45:05;;;;;;;41.28;20.17;;;2.00;99.90;;;;;;5033879;28;20101;-50
2023/02/15 06:47:30;;;;;;;42.45;22.50;;;1.90;99.90;;;;;;5033793;28;20030;-47
2023/02/15 06:49:57;;;;;;;44.92;22.27;;;2.00;99.90;;;;;;5033783;28;20389;-48
2023/02/15 06:52:22;;;;;;;40.30;22.15;;;2.00;99.90;;;;;;5033618;28;20053;-46
2023/02/15 06:54:48;;;;;;;37.35;20.55;;;2.00;99.90;;;;;;5033519;28;20053;-49
2023/02/15 06:57:13;;;;;;;36.65;20.63;;;2.00;99.90;;;;;;5033777;28;20037;-47
2023/02/15 06:59:39;;;;;;;38.15;21.02;;;2.00;99.90;;;;;;5015945;28;20428;-48
2023/02/15 07:02:05;;;;;;;36.35;19.02;;;2.10;99.90;;;;;;5033704;28;20037;-49
2023/02/15 07:04:30;;;;;;;41.85;20.08;;;2.10;99.90;;;;;;5033288;28;20033;-48
2023/02/15 07:06:56;;;;;;;40.78;20.48;;;2.00;99.90;;;;;;5033265;28;20065;-47
2023/02/15 07:09:22;;;;;;;29.52;18.52;;;2.00;99.90;;;;;;5015708;28;20020;-50
2023/02/15 07:14:32;;;;;;;40.38;20.35;;;1.80;99.90;;;;;;5033735;28;20091;-53
2023/02/15 07:16:57;;;;;;;40.95;19.33;;;1.80;99.90;;;;;;5033801;28;20029;-50
2023/02/15 07:19:23;;;;;;;48.47;20.63;;;1.90;99.90;;;;;;5034008;28;20495;-52
2023/02/15 07:21:48;;;;;;;35.63;19.88;;;1.80;99.90;;;;;;5033434;28;20226;-51
2023/02/15 07:24:14;;;;;;;37.70;20.90;;;1.90;99.90;;;;;;5033384;28;20022;-44
2023/02/15 07:26:39;;;;;;;43.85;19.63;;;1.90;99.90;;;;;;5033129;28;20045;-49
2023/02/15 07:29:05;;;;;;;42.85;19.65;;;1.90;99.90;;;;;;5033271;28;20030;-47
2023/02/15 07:31:31;;;;;;;39.20;20.60;;;1.90;99.90;;;;;;5033184;28;20374;-52
2023/02/15 07:33:56;;;;;;;36.30;19.50;;;1.90;99.90;;;;;;5033485;28;20072;-50
2023/02/15 07:36:22;;;;;;;42.10;20.95;;;2.00;99.90;;;;;;5032852;28;20033;-51
2023/02/15 07:38:47;;;;;;;39.05;19.77;;;2.00;99.90;;;;;;5033013;28;20065;-48
2023/02/15 07:41:14;;;;;;;37.33;19.20;;;2.00;99.90;;;;;;5032838;28;20112;-48
2023/02/15 07:43:42;;;;;;;36.53;18.88;;;2.10;99.90;;;;;;5032710;28;20037;-47
2023/02/15 07:46:11;;;;;;;35.97;18.02;;;2.20;99.90;;;;;;5032739;28;20026;-51
2023/02/15 07:48:38;;;;;;;35.30;17.20;;;2.20;99.90;;;;;;5032599;28;20017;-48
2023/02/15 07:51:05;;;;;;;36.78;18.02;;;2.20;99.90;;;;;;5032923;28;20025;-47
2023/02/15 07:53:32;;;;;;;33.05;17.40;;;2.20;99.90;;;;;;5032707;28;20025;-47
2023/02/15 07:56:03;;;;;;;34.70;17.45;;;2.30;99.90;;;;;;5032512;28;20087;-47
2023/02/15 08:01:13;;;;;;;30.33;17.15;;;2.20;99.90;;;;;;5032748;28;20135;-53
2023/02/15 08:03:39;;;;;;;30.80;17.42;;;2.30;99.90;;;;;;5033966;28;20029;-52
2023/02/15 08:06:05;;;;;;;32.33;17.00;;;2.30;99.90;;;;;;5032959;28;20112;-52
2023/02/15 08:08:33;;;;;;;31.95;17.23;;;2.30;99.90;;;;;;5031837;28;20082;-48
2023/02/15 08:13:53;;;;;;;31.08;16.92;;;2.20;99.90;;;;;;5032539;28;20668;-49
2023/02/15 08:16:29;;;;;;;32.95;17.52;;;2.30;99.90;;;;;;5032526;28;20442;-50
2023/02/15 08:18:56;;;;;;;28.90;16.88;;;2.40;99.90;;;;;;5032153;28;20083;-48
2023/02/15 08:21:22;;;;;;;32.83;17.25;;;2.40;99.90;;;;;;5032097;28;20397;-48
2023/02/15 08:23:47;;;;;;;29.05;16.58;;;2.30;99.90;;;;;;5031882;28;20025;-56
2023/02/15 08:26:13;;;;;;;32.45;16.73;;;2.40;99.90;;;;;;5031803;28;20087;-53
2023/02/15 08:28:40;;;;;;;24.38;15.18;;;2.40;99.90;;;;;;5031756;28;20417;-47
2023/02/15 08:31:11;;;;;;;36.67;17.20;;;2.40;99.90;;;;;;5031665;28;20025;-50
2023/02/15 08:33:38;;;;;;;29.17;17.25;;;2.50;99.90;;;;;;5031626;28;20033;-50
2023/02/15 08:36:07;;;;;;;32.20;18.67;;;2.50;99.90;;;;;;5031872;28;20572;-51
2023/02/15 08:38:33;;;;;;;31.33;17.65;;;2.50;99.90;;;;;;5031914;28;20049;-49
2023/02/15 08:41:12;;;;;;;33.78;18.83;;;2.40;99.90;;;;;;5031701;28;20029;-49
2023/02/15 08:43:38;;;;;;;31.30;17.33;;;2.40;99.90;;;;;;5031466;28;20037;-49
2023/02/15 08:46:04;;;;;;;31.35;18.38;;;2.30;99.90;;;;;;5031294;28;20022;-51
2023/02/15 08:48:29;;;;;;;29.10;17.20;;;2.40;99.90;;;;;;5031424;28;20113;-50
2023/02/15 08:50:55;;;;;;;39.85;19.40;;;2.30;99.90;;;;;;5031222;28;20038;-48
2023/02/15 08:53:21;;;;;;;38.58;18.65;;;2.20;99.90;;;;;;5031872;28;20079;-53
2023/02/15 08:55:54;;;;;;;35.35;19.25;;;2.20;99.90;;;;;;5031288;28;20100;-52
2023/02/15 08:58:19;;;;;;;41.17;20.25;;;2.20;99.90;;;;;;5031670;28;20439;-49
2023/02/15 09:00:45;;;;;;;44.78;22.48;;;2.20;99.90;;;;;;5031543;28;20025;-47
2023/02/15 09:03:11;;;;;;;45.00;22.33;;;2.30;99.90;;;;;;5031744;28;20108;-51
2023/02/15 09:05:36;;;;;;;48.33;24.05;;;2.30;99.90;;;;;;5031535;28;20092;-49
2023/02/15 09:08:02;;;;;;;45.03;23.63;;;2.30;99.90;;;;;;5031148;28;20156;-47
2023/02/15 09:10:27;;;;;;;50.42;23.60;;;2.40;99.90;;;;;;5031748;28;20029;-50
2023/02/15 09:12:53;;;;;;;53.03;25.25;;;2.50;99.90;;;;;;5031466;28;20029;-46
2023/02/15 09:15:18;;;;;;;54.00;25.00;;;2.60;99.90;;;;;;5031256;28;20037;-48
2023/02/15 09:17:44;;;;;;;57.67;26.30;;;2.60;99.90;;;;;;5032006;28;20040;-50
2023/02/15 09:20:10;;;;;;;54.45;26.40;;;2.50;99.90;;;;;;5031435;28;20108;-48
2023/02/15 09:22:35;;;;;;;52.28;25.70;;;2.50;99.90;;;;;;5031312;28;20026;-48
2023/02/15 09:25:00;;;;;;;60.90;27.95;;;2.50;99.90;;;;;;5031057;28;20029;-49
2023/02/15 09:27:26;;;;;;;58.78;29.83;;;2.50;99.90;;;;;;5030933;28;20121;-49
2023/02/15 09:29:51;;;;;;;63.03;30.90;;;2.50;99.90;;;;;;5013250;28;20392;-51
2023/02/15 09:32:17;;;;;;;62.40;30.00;;;2.50;99.90;;;;;;5030910;28;20021;-48
2023/02/15 09:34:43;;;;;;;69.25;32.38;;;2.60;99.90;;;;;;5030839;28;20028;-47
2023/02/15 09:37:08;;;;;;;66.60;31.63;;;2.60;99.90;;;;;;5030894;28;20040;-48
2023/02/15 09:39:39;;;;;;;65.65;30.38;;;2.70;99.90;;;;;;5030824;28;20033;-48
2023/02/15 09:42:17;;;;;;;65.53;32.00;;;2.70;99.90;;;;;;5030593;28;20037;-51
2023/02/15 09:45:10;;;;;;;78.25;31.58;;;2.70;99.90;;;;;;5032819;28;20109;-49
2023/02/15 09:48:04;;;;;;;62.13;29.95;;;2.60;99.90;;;;;;5016913;28;20025;-47
2023/02/15 09:50:30;;;;;;;67.18;31.23;;;2.60;99.90;;;;;;5034422;28;20022;-51
2023/02/15 09:53:11;;;;;;;66.93;30.17;;;2.60;99.90;;;;;;5034484;28;20036;-51
2023/02/15 09:55:42;;;;;;;64.80;30.98;;;2.60;99.90;;;;;;5031187;28;20040;-53
2023/02/15 09:58:34;;;;;;;73.00;32.88;;;2.60;99.90;;;;;;5032775;28;20026;-48
2023/02/15 10:01:00;;;;;;;61.45;27.85;;;2.50;99.90;;;;;;5031302;28;20554;-45
2023/02/15 10:03:47;;;;;;;61.95;29.08;;;2.50;99.90;;;;;;5015170;28;20029;-44
2023/02/15 10:06:41;;;;;;;62.25;30.02;;;2.50;99.90;;;;;;5032810;28;20101;-53
2023/02/15 10:09:41;;;;;;;66.80;32.20;;;2.50;99.90;;;;;;5032742;28;20116;-50
2023/02/15 10:12:44;;;;;;;65.05;30.55;;;2.60;99.90;;;;;;5018808;28;20378;-51
2023/02/15 10:15:21;;;;;;;62.22;31.08;;;2.70;99.90;;;;;;5013616;28;20029;-55
2023/02/15 10:18:15;;;;;;;69.22;30.10;;;2.70;99.90;;;;;;5014482;28;20109;-49
2023/02/15 10:20:57;;;;;;;63.60;30.58;;;2.60;99.90;;;;;;5014242;28;20056;-47
2023/02/15 10:23:49;;;;;;;71.47;33.42;;;2.70;99.90;;;;;;5025665;28;20108;-50
2023/02/15 10:26:25;;;;;;;67.00;33.67;;;2.80;99.90;;;;;;5015762;28;20029;-51
2023/02/15 10:29:04;;;;;;;64.47;32.97;;;2.80;99.90;;;;;;5034303;28;20477;-52
2023/02/15 10:31:50;;;;;;;71.07;34.90;;;2.80;99.90;;;;;;5016181;28;20069;-49
2023/02/15 10:34:25;;;;;;;78.93;38.88;;;2.80;99.90;;;;;;5034012;28;20100;-56
2023/02/15 10:37:16;;;;;;;66.32;32.25;;;2.80;99.90;;;;;;5034283;28;20021;-49
2023/02/15 10:40:05;;;;;;;51.35;26.10;;;2.90;99.90;;;;;;5034055;28;20032;-48
2023/02/15 10:42:54;;;;;;;55.85;28.13;;;3.10;99.90;;;;;;5033664;28;20101;-51
2023/02/15 10:45:33;;;;;;;54.80;26.38;;;3.00;99.90;;;;;;5033377;28;20017;-46
2023/02/15 10:48:18;;;;;;;58.65;27.95;;;3.00;99.90;;;;;;5033605;28;20033;-49
2023/02/15 10:50:52;;;;;;;59.27;27.80;;;3.10;99.90;;;;;;5033692;28;20036;-54
2023/02/15 10:53:39;;;;;;;54.47;27.20;;;3.10;99.90;;;;;;5033679;28;20586;-49
2023/02/15 10:56:28;;;;;;;65.15;28.15;;;3.10;99.90;;;;;;5033628;28;20022;-52
2023/02/15 10:59:17;;;;;;;51.13;25.63;;;3.00;99.90;;;;;;5033656;28;20493;-52
2023/02/15 11:02:12;;;;;;;54.08;27.00;;;3.00;99.90;;;;;;5033557;28;20117;-51
2023/02/15 11:04:52;;;;;;;53.65;25.25;;;3.00;99.90;;;;;;5032913;28;20538;-44
2023/02/15 11:07:25;;;;;;;58.38;27.13;;;3.00;99.90;;;;;;5031697;28;20037;-53
2023/02/15 11:10:19;;;;;;;67.90;29.75;;;3.10;99.90;;;;;;5032976;28;20488;-53
2023/02/15 11:12:46;;;;;;;68.22;31.77;;;3.20;99.90;;;;;;5030232;28;20052;-52
2023/02/15 11:15:34;;;;;;;65.85;32.72;;;3.10;99.90;;;;;;5014559;28;20507;-49
2023/02/15 11:18:16;;;;;;;67.70;32.33;;;3.10;99.90;;;;;;5033024;28;20025;-48
2023/02/15 11:21:03;;;;;;;64.03;30.33;;;3.10;99.90;;;;;;5032399;28;20400;-51
2023/02/15 11:23:29;;;;;;;69.05;32.42;;;3.10;99.90;;;;;;5032950;28;20492;-52
2023/02/15 11:26:03;;;;;;;58.78;30.02;;;3.10;99.90;;;;;;5032922;28;20025;-52
2023/02/15 11:28:44;;;;;;;62.72;31.05;;;3.10;99.90;;;;;;5032895;28;20115;-52
2023/02/15 11:31:22;;;;;;;71.43;31.30;;;3.20;99.90;;;;;;4995049;28;20079;-48
2023/02/15 11:33:55;;;;;;;63.60;31.42;;;3.20;99.90;;;;;;5012675;28;20022;-49
2023/02/15 11:36:33;;;;;;;59.70;28.92;;;3.20;99.90;;;;;;4995112;28;20111;-51
2023/02/15 11:39:04;;;;;;;66.47;31.35;;;3.20;99.90;;;;;;4995242;28;20393;-50
2023/02/15 11:41:35;;;;;;;58.20;29.80;;;3.20;99.90;;;;;;5018436;28;20507;-52
2023/02/15 11:44:15;;;;;;;60.15;30.30;;;3.20;99.90;;;;;;5014442;28;20508;-50
2023/02/15 11:46:41;;;;;;;65.68;31.35;;;3.20;99.90;;;;;;5031988;28;20378;-52
2023/02/15 11:49:22;;;;;;;65.43;32.35;;;3.20;99.90;;;;;;5014533;28;20036;-50
2023/02/15 11:51:50;;;;;;;68.30;32.33;;;3.30;99.90;;;;;;5053995;23;20191;-59
2023/02/15 11:54:18;;;;;;;73.18;32.67;;;3.30;99.90;;;;;;5032446;28;20018;-55
2023/02/15 11:56:44;;;;;;;60.72;31.48;;;3.30;99.90;;;;;;5032718;28;20100;-56
2023/02/15 11:59:17;;;;;;;80.80;37.50;;;3.40;99.90;;;;;;5030163;28;20167;-59
2023/02/15 12:01:46;;;;;;;71.63;35.53;;;3.40;99.90;;;;;;5029691;28;20029;-60
2023/02/15 12:04:21;;;;;;;74.70;36.17;;;3.50;99.90;;;;;;5030308;28;20382;-57
2023/02/15 12:07:12;;;;;;;85.72;37.08;;;3.40;99.90;;;;;;5030286;28;20497;-57
2023/02/15 12:09:48;;;;;;;80.85;39.60;;;3.40;99.90;;;;;;5032045;28;20497;-58
2023/02/15 12:12:22;;;;;;;85.55;40.65;;;3.40;99.90;;;;;;5040108;28;20032;-59
2023/02/15 12:14:52;;;;;;;82.50;41.17;;;3.50;99.90;;;;;;5040608;28;20017;-59
2023/02/15 12:17:21;;;;;;;83.53;40.30;;;3.50;99.90;;;;;;5044423;28;20136;-59
2023/02/15 12:19:50;;;;;;;90.72;41.40;;;3.60;99.90;;;;;;5042044;28;20026;-58
2023/02/15 12:22:29;;;;;;;92.05;41.75;;;3.60;99.90;;;;;;5040017;28;20018;-57
2023/02/15 12:24:57;;;;;;;89.25;40.47;;;3.60;99.90;;;;;;5035237;28;20065;-58
2023/02/15 12:27:35;;;;;;;88.18;42.05;;;3.60;99.90;;;;;;5036292;28;20041;-60
2023/02/15 12:30:15;;;;;;;90.60;42.10;;;3.50;99.90;;;;;;5035218;28;20062;-55
2023/02/15 12:33:22;;;;;;;93.78;42.95;;;3.60;99.90;;;;;;5034526;28;20398;-54
2023/02/15 12:35:54;;;;;;;102.03;44.92;;;3.70;99.90;;;;;;5033963;28;20032;-57
2023/02/15 12:38:24;;;;;;;107.00;45.63;;;3.70;99.90;;;;;;5030958;28;20026;-57
2023/02/15 12:40:59;;;;;;;95.15;45.50;;;3.70;99.90;;;;;;5031869;28;20026;-60
2023/02/15 12:43:36;;;;;;;95.23;45.83;;;3.60;99.90;;;;;;5049914;28;20025;-60
2023/02/15 12:46:25;;;;;;;90.43;44.17;;;3.60;99.90;;;;;;5053294;28;20104;-61
2023/02/15 12:49:18;;;;;;;101.82;45.55;;;3.70;99.90;;;;;;5054481;28;20064;-58
2023/02/15 12:51:49;;;;;;;91.97;44.83;;;3.70;99.90;;;;;;5054745;28;20087;-57
2023/02/15 12:54:32;;;;;;;97.68;44.67;;;3.90;99.90;;;;;;5051764;28;20028;-59
2023/02/15 12:56:58;;;;;;;94.43;45.65;;;4.00;99.90;;;;;;5054416;28;20387;-62
2023/02/15 12:59:26;;;;;;;93.07;47.10;;;3.90;99.90;;;;;;5053182;28;20053;-56
2023/02/15 13:01:55;;;;;;;102.15;49.45;;;3.80;99.90;;;;;;5056637;28;20519;-61
2023/02/15 13:04:25;;;;;;;98.90;47.08;;;3.70;99.90;;;;;;5057341;28;20016;-61
2023/02/15 13:06:57;;;;;;;99.40;47.63;;;3.60;99.90;;;;;;5053245;28;20025;-55
2023/02/15 13:09:31;;;;;;;100.00;48.75;;;3.60;99.90;;;;;;5051132;28;20109;-60
2023/02/15 13:12:17;;;;;;;101.07;49.53;;;3.60;99.90;;;;;;5053694;28;20053;-62
2023/02/15 13:14:51;;;;;;;97.68;48.58;;;3.60;99.90;;;;;;5059570;28;20041;-61
2023/02/15 13:17:18;;;;;;;107.03;50.88;;;3.60;99.90;;;;;;5058108;28;20029;-62
2023/02/15 13:19:51;;;;;;;100.97;49.03;;;3.60;99.90;;;;;;5017342;28;20026;-62
2023/02/15 13:22:24;;;;;;;106.10;49.38;;;3.50;99.90;;;;;;5020849;28;20117;-61
2023/02/15 13:25:04;;;;;;;90.05;47.67;;;3.50;99.90;;;;;;5033993;28;20037;-58
2023/02/15 13:27:38;;;;;;;86.28;45.13;;;3.50;99.90;;;;;;5052967;28;20029;-57
2023/02/15 13:30:24;;;;;;;96.43;47.88;;;3.40;99.90;;;;;;5052172;28;20074;-57